createdAt,value
2018-10-21T00:00:48.946Z,4.70
2018-10-21T00:03:17.291Z,4.60
2018-10-21T00:05:45.661Z,4.70
2018-10-21T00:08:13.947Z,4.70
2018-10-21T00:10:42.283Z,4.70
2018-10-21T00:13:10.581Z,4.70
2018-10-21T00:15:39.034Z,4.70
2018-10-21T00:18:07.296Z,4.70
2018-10-21T00:20:35.593Z,4.70
2018-10-21T00:23:03.890Z,4.70
2018-10-21T00:25:32.439Z,4.70
2018-10-21T00:28:00.782Z,4.80
2018-10-21T00:30:29.189Z,4.80
2018-10-21T00:32:57.549Z,4.90
2018-10-21T00:35:25.951Z,4.90
2018-10-21T00:37:54.252Z,5.00
2018-10-21T00:40:22.724Z,5.00
2018-10-21T00:42:51.025Z,5.10
2018-10-21T00:45:19.325Z,5.10
2018-10-21T00:47:47.735Z,5.20
2018-10-21T00:50:16.045Z,5.10
2018-10-21T00:52:44.440Z,5.10
2018-10-21T00:55:12.768Z,5.10
2018-10-21T00:57:41.158Z,5.20
2018-10-21T01:00:11.530Z,5.30
2018-10-21T01:02:39.873Z,5.30
2018-10-21T01:05:09.311Z,5.30
2018-10-21T01:07:37.629Z,5.40
2018-10-21T01:10:07.950Z,5.40
2018-10-21T01:12:36.273Z,5.40
2018-10-21T01:15:05.037Z,5.50
2018-10-21T01:17:33.605Z,5.50
2018-10-21T01:20:01.890Z,5.60
2018-10-21T01:22:30.225Z,5.50
2018-10-21T01:24:58.600Z,5.50
2018-10-21T01:27:26.985Z,5.60
2018-10-21T01:29:55.283Z,5.60
2018-10-21T01:32:23.672Z,5.60
2018-10-21T01:34:52.136Z,5.60
2018-10-21T01:37:20.461Z,5.60
2018-10-21T01:40:59.412Z,5.50
2018-10-21T01:43:28.822Z,5.50
2018-10-21T01:45:57.497Z,5.60
2018-10-21T01:48:27.135Z,5.50
2018-10-21T01:50:55.459Z,5.50
2018-10-21T01:53:24.069Z,5.50
2018-10-21T01:55:52.410Z,5.50
2018-10-21T01:58:20.743Z,5.60
2018-10-21T02:00:49.083Z,5.60
2018-10-21T02:03:17.734Z,5.60
2018-10-21T02:05:46.685Z,5.50
2018-10-21T02:08:14.992Z,5.40
2018-10-21T02:10:43.364Z,5.40
2018-10-21T02:13:11.675Z,5.40
2018-10-21T02:15:40.152Z,5.50
2018-10-21T02:18:08.485Z,5.50
2018-10-21T02:20:36.786Z,5.60
2018-10-21T02:23:05.097Z,5.50
2018-10-21T02:25:33.481Z,5.50
2018-10-21T02:28:01.821Z,5.50
2018-10-21T02:30:31.080Z,5.50
2018-10-21T02:33:00.266Z,5.60
2018-10-21T02:35:28.593Z,5.60
2018-10-21T02:37:57.553Z,5.60
2018-10-21T02:41:38.766Z,5.60
2018-10-21T02:44:10.296Z,5.60
2018-10-21T02:46:39.462Z,5.50
2018-10-21T02:49:08.587Z,5.60
2018-10-21T02:51:37.970Z,5.60
2018-10-21T02:54:06.699Z,5.60
2018-10-21T02:56:35.026Z,5.70
2018-10-21T02:59:03.320Z,5.70
2018-10-21T03:01:31.680Z,5.70
2018-10-21T03:04:00.002Z,5.70
2018-10-21T03:06:28.363Z,5.70
2018-10-21T03:08:56.835Z,5.80
2018-10-21T03:11:25.122Z,5.80
2018-10-21T03:13:53.418Z,5.80
2018-10-21T03:16:22.236Z,5.80
2018-10-21T03:18:50.673Z,5.80
2018-10-21T03:21:19.023Z,5.70
2018-10-21T03:23:47.873Z,5.70
2018-10-21T03:26:16.180Z,5.70
2018-10-21T03:28:44.508Z,5.80
2018-10-21T03:31:12.833Z,5.80
2018-10-21T03:33:41.203Z,5.80
2018-10-21T03:36:10.103Z,5.80
2018-10-21T03:38:38.568Z,5.90
2018-10-21T03:41:06.880Z,5.90
2018-10-21T03:43:35.301Z,6.00
2018-10-21T03:46:03.722Z,6.00
2018-10-21T03:48:32.089Z,6.00
2018-10-21T03:51:00.772Z,6.10
2018-10-21T03:53:29.205Z,6.00
2018-10-21T03:55:57.589Z,6.10
2018-10-21T03:58:25.885Z,6.10
2018-10-21T04:00:54.290Z,6.00
2018-10-21T04:03:22.604Z,6.00
2018-10-21T04:05:51.042Z,6.00
2018-10-21T04:08:19.372Z,6.00
2018-10-21T04:10:47.886Z,6.00
2018-10-21T04:13:16.428Z,6.00
2018-10-21T04:15:44.784Z,5.90
2018-10-21T04:18:13.084Z,5.90
2018-10-21T04:20:41.428Z,5.90
2018-10-21T04:23:09.754Z,5.90
2018-10-21T04:25:39.098Z,5.90
2018-10-21T04:28:08.298Z,5.90
2018-10-21T04:30:40.289Z,5.90
2018-10-21T04:33:45.926Z,6.00
2018-10-21T04:36:15.765Z,6.00
2018-10-21T04:38:55.520Z,6.10
2018-10-21T04:41:23.856Z,6.10
2018-10-21T04:43:52.158Z,6.20
2018-10-21T04:46:20.604Z,6.20
2018-10-21T04:48:48.942Z,6.20
2018-10-21T04:51:17.278Z,6.30
2018-10-21T04:53:45.627Z,6.30
2018-10-21T04:56:13.943Z,6.10
2018-10-21T04:58:42.346Z,6.10
2018-10-21T05:01:10.681Z,6.10
2018-10-21T05:03:39.068Z,6.10
2018-10-21T05:06:07.455Z,6.20
2018-10-21T05:08:35.965Z,6.20
2018-10-21T05:11:04.313Z,6.20
2018-10-21T05:13:32.772Z,6.30
2018-10-21T05:16:01.149Z,6.30
2018-10-21T05:18:29.548Z,6.30
2018-10-21T05:20:57.909Z,6.30
2018-10-21T05:23:26.258Z,6.30
2018-10-21T05:25:54.562Z,6.40
2018-10-21T05:28:22.977Z,6.50
2018-10-21T05:30:51.463Z,6.50
2018-10-21T05:33:19.994Z,6.60
2018-10-21T05:35:48.481Z,6.60
2018-10-21T05:38:16.872Z,6.60
2018-10-21T05:40:45.675Z,6.60
2018-10-21T05:43:14.301Z,6.60
2018-10-21T05:45:42.788Z,6.50
2018-10-21T05:48:11.098Z,6.60
2018-10-21T05:50:39.597Z,6.50
2018-10-21T05:53:08.075Z,6.60
2018-10-21T05:55:36.561Z,6.60
2018-10-21T05:58:05.178Z,6.70
2018-10-21T06:00:33.608Z,6.70
2018-10-21T06:03:02.003Z,6.80
2018-10-21T06:05:37.380Z,6.80
2018-10-21T06:08:06.040Z,6.90
2018-10-21T06:10:34.629Z,7.00
2018-10-21T06:13:03.128Z,7.00
2018-10-21T06:15:31.560Z,7.10
2018-10-21T06:18:00.009Z,7.20
2018-10-21T06:20:31.332Z,7.20
2018-10-21T06:22:59.708Z,7.20
2018-10-21T06:25:28.114Z,7.20
2018-10-21T06:27:56.520Z,7.30
2018-10-21T06:30:24.895Z,7.40
2018-10-21T06:32:53.206Z,7.50
2018-10-21T06:35:21.557Z,7.50
2018-10-21T06:37:49.869Z,7.50
2018-10-21T06:40:18.201Z,7.50
2018-10-21T06:42:46.692Z,7.60
2018-10-21T06:45:15.062Z,7.70
2018-10-21T06:47:43.345Z,7.70
2018-10-21T06:50:15.991Z,7.80
2018-10-21T06:52:44.512Z,7.80
2018-10-21T06:55:13.304Z,7.90
2018-10-21T06:57:42.398Z,7.80
2018-10-21T07:00:10.842Z,7.90
2018-10-21T07:02:39.295Z,8.00
2018-10-21T07:06:31.996Z,8.00
2018-10-21T07:09:01.618Z,8.10
2018-10-21T07:11:30.002Z,8.10
2018-10-21T07:13:58.417Z,8.10
2018-10-21T07:16:26.836Z,8.20
2018-10-21T07:18:55.407Z,8.20
2018-10-21T07:21:23.748Z,8.20
2018-10-21T07:24:55.050Z,8.20
2018-10-21T07:27:23.401Z,8.30
2018-10-21T07:29:51.787Z,8.30
2018-10-21T07:32:20.092Z,8.30
2018-10-21T07:34:48.465Z,8.40
2018-10-21T07:37:16.872Z,8.50
2018-10-21T07:39:45.477Z,8.60
2018-10-21T07:42:13.843Z,8.70
2018-10-21T07:44:42.723Z,8.80
2018-10-21T07:47:11.070Z,8.90
2018-10-21T07:49:39.552Z,9.00
2018-10-21T07:52:07.932Z,9.10
2018-10-21T07:54:36.737Z,9.20
2018-10-21T07:57:05.198Z,9.20
2018-10-21T07:59:33.644Z,9.40
2018-10-21T08:02:01.994Z,9.50
2018-10-21T08:04:30.354Z,9.60
2018-10-21T08:07:10.165Z,9.80
2018-10-21T08:09:38.640Z,10.10
2018-10-21T08:12:06.961Z,10.20
2018-10-21T08:14:35.496Z,10.30
2018-10-21T08:17:03.902Z,10.30
2018-10-21T08:19:32.252Z,10.20
2018-10-21T08:22:00.635Z,10.30
2018-10-21T08:24:29.055Z,10.30
2018-10-21T08:26:57.497Z,10.30
2018-10-21T08:29:25.857Z,10.20
2018-10-21T08:31:54.306Z,10.20
2018-10-21T08:34:22.652Z,10.30
2018-10-21T08:36:51.045Z,10.30
2018-10-21T08:39:19.459Z,10.30
2018-10-21T08:41:47.900Z,10.40
2018-10-21T08:44:16.301Z,10.50
2018-10-21T08:46:45.730Z,10.70
2018-10-21T08:49:14.062Z,10.80
2018-10-21T08:51:42.333Z,10.80
2018-10-21T08:54:10.644Z,10.90
2018-10-21T08:56:39.045Z,10.90
2018-10-21T08:59:07.382Z,10.90
2018-10-21T09:01:35.830Z,10.80
2018-10-21T09:04:04.216Z,10.80
2018-10-21T09:06:32.468Z,10.90
2018-10-21T09:09:00.801Z,10.70
2018-10-21T09:11:29.089Z,10.70
2018-10-21T09:13:57.400Z,10.70
2018-10-21T09:16:25.752Z,10.90
2018-10-21T09:18:54.099Z,10.90
2018-10-21T09:21:22.357Z,10.90
2018-10-21T09:23:50.686Z,10.90
2018-10-21T09:26:18.993Z,11.10
2018-10-21T09:28:47.285Z,11.10
2018-10-21T09:31:15.724Z,11.10
2018-10-21T09:33:43.960Z,11.10
2018-10-21T09:36:12.255Z,11.10
2018-10-21T09:38:40.602Z,11.20
2018-10-21T09:41:08.900Z,11.10
2018-10-21T09:43:37.211Z,11.10
2018-10-21T09:46:05.689Z,11.10
2018-10-21T09:48:33.969Z,11.00
2018-10-21T09:51:02.293Z,11.10
2018-10-21T09:53:30.625Z,11.20
2018-10-21T09:55:58.901Z,11.20
2018-10-21T09:58:27.213Z,10.90
2018-10-21T10:01:00.859Z,11.00
2018-10-21T10:03:29.167Z,11.20
2018-10-21T10:05:57.481Z,10.90
2018-10-21T10:08:25.821Z,11.10
2018-10-21T10:10:54.119Z,11.10
2018-10-21T10:13:22.421Z,11.10
2018-10-21T10:15:57.183Z,11.00
2018-10-21T10:18:25.498Z,10.60
2018-10-21T10:20:53.841Z,10.50
2018-10-21T10:23:22.251Z,10.50
2018-10-21T10:25:51.371Z,10.40
2018-10-21T10:28:19.689Z,10.50
2018-10-21T10:30:48.016Z,10.60
2018-10-21T10:33:16.364Z,10.80
2018-10-21T10:35:45.665Z,11.20
2018-10-21T10:38:13.981Z,11.40
2018-10-21T10:40:42.597Z,11.50
2018-10-21T10:43:11.009Z,11.30
2018-10-21T10:45:39.275Z,11.40
2018-10-21T10:48:07.625Z,11.00
2018-10-21T10:50:35.922Z,10.80
2018-10-21T10:53:04.459Z,10.80
2018-10-21T10:55:37.973Z,10.70
2018-10-21T10:58:06.494Z,10.70
2018-10-21T11:00:34.802Z,10.90
2018-10-21T11:03:03.188Z,10.80
2018-10-21T11:05:38.248Z,10.80
2018-10-21T11:08:06.913Z,10.70
2018-10-21T11:10:35.201Z,10.80
2018-10-21T11:13:03.646Z,10.70
2018-10-21T11:15:31.972Z,10.80
2018-10-21T11:18:00.264Z,10.90
2018-10-21T11:20:28.580Z,11.00
2018-10-21T11:22:57.154Z,11.10
2018-10-21T11:25:25.257Z,11.20
2018-10-21T11:27:53.594Z,11.30
2018-10-21T11:30:21.910Z,11.30
2018-10-21T11:32:50.311Z,11.20
2018-10-21T11:35:18.664Z,11.30
2018-10-21T11:37:47.083Z,11.40
2018-10-21T11:40:15.333Z,11.40
2018-10-21T11:42:43.666Z,11.50
2018-10-21T11:45:11.976Z,11.60
2018-10-21T11:47:40.321Z,11.80
2018-10-21T11:50:08.675Z,11.90
2018-10-21T11:52:37.080Z,11.80
2018-10-21T11:55:06.791Z,11.80
2018-10-21T11:57:35.080Z,11.70
2018-10-21T12:00:03.416Z,11.60
2018-10-21T12:02:31.759Z,11.50
2018-10-21T12:05:00.097Z,11.50
2018-10-21T12:07:28.415Z,11.50
2018-10-21T12:09:56.710Z,11.50
2018-10-21T12:12:25.067Z,11.50
2018-10-21T12:14:53.377Z,11.50
2018-10-21T12:17:21.692Z,11.50
2018-10-21T12:19:50.497Z,11.50
2018-10-21T12:22:18.868Z,11.60
2018-10-21T12:24:47.076Z,11.50
2018-10-21T12:27:15.405Z,11.50
2018-10-21T12:29:43.707Z,11.50
2018-10-21T12:32:12.273Z,11.50
2018-10-21T12:34:40.600Z,11.50
2018-10-21T12:37:08.976Z,11.50
2018-10-21T12:39:37.232Z,11.50
2018-10-21T12:42:05.942Z,11.60
2018-10-21T12:44:34.233Z,11.70
2018-10-21T12:47:02.707Z,11.60
2018-10-21T12:49:30.965Z,11.60
2018-10-21T12:51:59.370Z,11.50
2018-10-21T12:54:27.719Z,11.40
2018-10-21T12:56:55.954Z,11.30
2018-10-21T12:59:24.251Z,11.20
2018-10-21T13:01:52.589Z,11.10
2018-10-21T13:04:20.898Z,11.10
2018-10-21T13:06:49.243Z,11.10
2018-10-21T13:09:17.598Z,11.20
2018-10-21T13:11:45.885Z,11.20
2018-10-21T13:14:14.205Z,11.30
2018-10-21T13:16:42.532Z,11.40
2018-10-21T13:19:10.915Z,11.40
2018-10-21T13:21:39.172Z,11.50
2018-10-21T13:24:07.497Z,11.40
2018-10-21T13:26:36.012Z,11.40
2018-10-21T13:29:04.325Z,11.50
2018-10-21T13:31:32.653Z,11.50
2018-10-21T13:34:00.950Z,11.40
2018-10-21T13:36:29.240Z,11.30
2018-10-21T13:38:57.593Z,11.30
2018-10-21T13:41:25.892Z,11.40
2018-10-21T13:43:54.206Z,11.30
2018-10-21T13:46:22.614Z,11.20
2018-10-21T13:48:51.281Z,11.20
2018-10-21T13:51:19.576Z,11.20
2018-10-21T13:53:47.916Z,11.20
2018-10-21T13:56:16.217Z,11.10
2018-10-21T13:58:44.520Z,11.10
2018-10-21T14:01:12.953Z,11.10
2018-10-21T14:03:41.265Z,11.20
2018-10-21T14:06:09.574Z,11.30
2018-10-21T14:08:37.906Z,11.30
2018-10-21T14:11:06.217Z,11.30
2018-10-21T14:13:34.516Z,11.40
2018-10-21T14:16:02.922Z,11.40
2018-10-21T14:18:31.208Z,11.40
2018-10-21T14:20:59.694Z,11.40
2018-10-21T14:23:28.044Z,11.30
2018-10-21T14:25:56.362Z,11.20
2018-10-21T14:28:24.685Z,11.20
2018-10-21T14:30:53.058Z,11.10
2018-10-21T14:33:21.583Z,11.10
2018-10-21T14:35:50.417Z,11.00
2018-10-21T14:38:18.778Z,10.90
2018-10-21T14:40:47.109Z,10.90
2018-10-21T14:43:15.421Z,11.00
2018-10-21T14:45:43.867Z,11.00
2018-10-21T14:48:12.190Z,10.90
2018-10-21T14:50:40.416Z,10.90
2018-10-21T14:53:08.754Z,10.90
2018-10-21T14:55:37.072Z,10.90
2018-10-21T14:58:05.398Z,10.90
2018-10-21T15:00:33.817Z,10.90
2018-10-21T15:03:02.133Z,10.80
2018-10-21T15:05:30.442Z,10.90
2018-10-21T15:07:59.018Z,10.70
2018-10-21T15:10:27.278Z,10.70
2018-10-21T15:12:55.584Z,10.70
2018-10-21T15:15:23.908Z,10.70
2018-10-21T15:17:52.430Z,10.70
2018-10-21T15:20:20.746Z,10.70
2018-10-21T15:22:49.211Z,10.70
2018-10-21T15:25:17.457Z,10.70
2018-10-21T15:27:45.773Z,10.70
2018-10-21T15:30:14.160Z,10.60
2018-10-21T15:32:42.499Z,10.50
2018-10-21T15:35:10.828Z,10.50
2018-10-21T15:37:39.149Z,10.40
2018-10-21T15:40:08.664Z,10.40
2018-10-21T15:42:37.014Z,10.30
2018-10-21T15:45:06.891Z,10.30
2018-10-21T15:47:35.193Z,10.20
2018-10-21T15:50:03.598Z,10.00
2018-10-21T15:52:35.276Z,9.80
2018-10-21T15:55:03.677Z,9.70
2018-10-21T15:57:31.961Z,9.50
2018-10-21T16:00:00.277Z,9.40
2018-10-21T16:02:28.588Z,9.20
2018-10-21T16:04:56.845Z,9.00
2018-10-21T16:07:25.275Z,8.80
2018-10-21T16:09:53.579Z,8.70
2018-10-21T16:12:21.866Z,8.60
2018-10-21T16:14:51.323Z,8.40
2018-10-21T16:17:19.614Z,8.30
2018-10-21T16:19:47.912Z,8.20
2018-10-21T16:22:16.354Z,8.00
2018-10-21T16:24:44.776Z,7.90
2018-10-21T16:27:13.076Z,7.80
2018-10-21T16:29:41.405Z,7.70
2018-10-21T16:32:09.750Z,7.60
2018-10-21T16:34:37.981Z,7.50
2018-10-21T16:37:06.342Z,7.40
2018-10-21T16:39:34.613Z,7.30
2018-10-21T16:42:02.978Z,7.30
2018-10-21T16:44:31.363Z,7.30
2018-10-21T16:46:59.665Z,7.40
2018-10-21T16:49:27.962Z,7.30
2018-10-21T16:51:56.320Z,7.20
2018-10-21T16:54:24.905Z,7.10
2018-10-21T16:56:53.459Z,6.90
2018-10-21T16:59:21.845Z,6.70
2018-10-21T17:01:50.170Z,6.60
2018-10-21T17:04:18.464Z,6.50
2018-10-21T17:06:46.796Z,6.50
2018-10-21T17:09:15.427Z,6.40
2018-10-21T17:11:44.305Z,6.40
2018-10-21T17:14:12.581Z,6.30
2018-10-21T17:16:40.909Z,6.30
2018-10-21T17:19:09.526Z,6.20
2018-10-21T17:21:37.864Z,6.10
2018-10-21T17:24:06.267Z,5.80
2018-10-21T17:26:34.656Z,5.60
2018-10-21T17:29:02.944Z,5.50
2018-10-21T17:31:31.273Z,5.40
2018-10-21T17:33:59.619Z,5.30
2018-10-21T17:36:27.928Z,5.20
2018-10-21T17:38:56.266Z,5.00
2018-10-21T17:41:24.665Z,4.90
2018-10-21T17:43:52.996Z,4.80
2018-10-21T17:46:21.318Z,4.70
2018-10-21T17:48:49.986Z,4.60
2018-10-21T17:51:18.269Z,4.50
2018-10-21T17:53:46.553Z,4.50
2018-10-21T17:56:14.872Z,4.50
2018-10-21T17:58:43.301Z,4.50
2018-10-21T18:01:11.998Z,4.60
2018-10-21T18:03:40.309Z,4.50
2018-10-21T18:06:08.588Z,4.50
2018-10-21T18:08:36.941Z,4.40
2018-10-21T18:11:05.936Z,4.40
2018-10-21T18:13:34.236Z,4.40
2018-10-21T18:16:02.697Z,4.40
2018-10-21T18:18:30.964Z,4.30
2018-10-21T18:20:59.449Z,4.30
2018-10-21T18:23:27.844Z,4.20
2018-10-21T18:25:56.410Z,4.10
2018-10-21T18:28:24.694Z,4.10
2018-10-21T18:30:53.061Z,4.00
2018-10-21T18:33:21.381Z,3.90
2018-10-21T18:35:50.481Z,3.70
2018-10-21T18:38:18.788Z,3.50
2018-10-21T18:40:47.296Z,3.40
2018-10-21T18:43:15.581Z,3.40
2018-10-21T18:45:44.386Z,3.30
2018-10-21T18:48:12.775Z,3.20
2018-10-21T18:50:41.116Z,3.20
2018-10-21T18:53:09.404Z,3.20
2018-10-21T18:55:37.807Z,3.20
2018-10-21T18:58:06.174Z,3.10
2018-10-21T19:00:34.518Z,3.10
2018-10-21T19:03:03.196Z,3.10
2018-10-21T19:05:31.489Z,3.10
2018-10-21T19:07:59.867Z,3.10
2018-10-21T19:10:28.308Z,3.10
2018-10-21T19:13:00.047Z,3.00
2018-10-21T19:15:24.969Z,3.10
2018-10-21T19:17:53.429Z,3.10
2018-10-21T19:20:21.761Z,3.10
2018-10-21T19:22:50.057Z,3.00
2018-10-21T19:25:18.566Z,3.00
2018-10-21T19:27:47.049Z,3.00
2018-10-21T19:30:15.821Z,3.00
2018-10-21T19:32:44.423Z,2.90
2018-10-21T19:35:13.593Z,2.90
2018-10-21T19:37:41.895Z,2.80
2018-10-21T19:40:11.900Z,2.80
2018-10-21T19:42:40.459Z,2.80
2018-10-21T19:45:09.645Z,2.80
2018-10-21T19:47:37.973Z,2.60
2018-10-21T19:50:08.648Z,2.50
2018-10-21T19:52:36.941Z,2.30
2018-10-21T19:55:05.825Z,2.20
2018-10-21T19:57:34.104Z,2.10
2018-10-21T20:00:02.408Z,2.00
2018-10-21T20:02:30.976Z,2.00
2018-10-21T20:04:59.281Z,2.00
2018-10-21T20:07:27.552Z,1.90
2018-10-21T20:09:55.925Z,2.00
2018-10-21T20:12:24.165Z,2.00
2018-10-21T20:14:52.448Z,2.10
2018-10-21T20:17:20.779Z,2.20
2018-10-21T20:19:49.060Z,2.30
2018-10-21T20:22:17.374Z,2.30
2018-10-21T20:24:45.748Z,2.30
2018-10-21T20:27:14.044Z,2.40
2018-10-21T20:29:42.329Z,2.40
2018-10-21T20:32:10.640Z,2.30
2018-10-21T20:34:38.933Z,2.20
2018-10-21T20:37:07.229Z,2.20
2018-10-21T20:39:35.550Z,2.10
2018-10-21T20:42:03.924Z,2.10
2018-10-21T20:44:32.174Z,2.00
2018-10-21T20:47:00.612Z,2.00
2018-10-21T20:49:28.884Z,2.00
2018-10-21T20:51:57.188Z,2.00
2018-10-21T20:54:29.725Z,2.10
2018-10-21T20:57:00.497Z,2.00
2018-10-21T20:59:28.813Z,1.90
2018-10-21T21:01:57.229Z,1.90
2018-10-21T21:04:25.518Z,1.80
2018-10-21T21:06:54.237Z,1.70
2018-10-21T21:09:22.545Z,1.70
2018-10-21T21:12:01.252Z,1.70
2018-10-21T21:14:29.609Z,1.70
2018-10-21T21:16:57.940Z,1.70
2018-10-21T21:19:26.537Z,1.70
2018-10-21T21:21:54.885Z,1.60
2018-10-21T21:24:23.236Z,1.60
2018-10-21T21:26:51.568Z,1.60
2018-10-21T21:29:19.882Z,1.60
2018-10-21T21:31:48.348Z,1.60
2018-10-21T21:34:17.035Z,1.50
2018-10-21T21:36:45.678Z,1.40
2018-10-21T21:39:14.973Z,1.40
2018-10-21T21:41:44.532Z,1.30
2018-10-21T21:44:12.941Z,1.30
2018-10-21T21:46:41.804Z,1.30
2018-10-21T21:49:11.463Z,1.20
2018-10-21T21:51:40.067Z,1.10
2018-10-21T21:54:10.430Z,1.10
2018-10-21T21:56:39.093Z,1.10
2018-10-21T21:59:07.793Z,1.20
2018-10-21T22:01:36.197Z,1.20
2018-10-21T22:04:04.658Z,1.20
2018-10-21T22:06:33.000Z,1.20
2018-10-21T22:09:01.314Z,1.10
2018-10-21T22:11:29.662Z,1.00
2018-10-21T22:13:58.061Z,0.80
2018-10-21T22:16:26.381Z,0.70
2018-10-21T22:18:54.710Z,0.60
2018-10-21T22:21:23.046Z,0.60
2018-10-21T22:23:51.366Z,0.60
2018-10-21T22:26:19.953Z,0.70
2018-10-21T22:28:48.273Z,0.70
2018-10-21T22:31:16.573Z,0.60
2018-10-21T22:33:45.117Z,0.60
2018-10-21T22:36:13.463Z,0.50
2018-10-21T22:38:41.768Z,0.50
2018-10-21T22:41:10.118Z,0.60
2018-10-21T22:43:38.441Z,0.50
2018-10-21T22:46:06.864Z,0.50
2018-10-21T22:48:35.189Z,0.50
2018-10-21T22:51:03.501Z,0.50
2018-10-21T22:53:31.812Z,0.40
2018-10-21T22:56:00.184Z,0.40
2018-10-21T22:58:28.498Z,0.40
2018-10-21T23:00:56.785Z,0.40
2018-10-21T23:03:25.110Z,0.40
2018-10-21T23:05:53.416Z,0.30
2018-10-21T23:08:21.713Z,0.40
2018-10-21T23:10:50.120Z,0.40
2018-10-21T23:13:18.409Z,0.40
2018-10-21T23:15:46.721Z,0.40
2018-10-21T23:18:21.549Z,0.40
2018-10-21T23:20:49.844Z,0.40
2018-10-21T23:23:18.155Z,0.40
2018-10-21T23:25:46.485Z,0.40
2018-10-21T23:28:14.839Z,0.30
2018-10-21T23:30:43.308Z,0.30
2018-10-21T23:33:11.768Z,0.30
2018-10-21T23:35:40.081Z,0.20
2018-10-21T23:38:08.481Z,0.10
2018-10-21T23:40:36.815Z,0.00
2018-10-21T23:43:05.348Z,0.00
2018-10-21T23:45:33.752Z,0.00
2018-10-21T23:48:02.427Z,0.10
2018-10-21T23:50:30.728Z,0.10
2018-10-21T23:52:59.021Z,0.10
2018-10-21T23:55:27.329Z,0.10
2018-10-21T23:57:55.618Z,0.00
